Latest Weather Observations for Fitzroy Crossing

IDW60801

Issued at 8:03 am WST Monday 2 February 2015 (issued every 30 minutes, with the page automatically refreshed every 10 minutes)

About weather observations | Map of weather stations | Latest weather observations for WA | Other Formats
Station Details ID: 003093 Name: FITZROY CROSSING AERO Lat: -18.18 Lon: 125.56 Height: 114.5 m
Data from the previous 72 hours. | See also: Recent months at Fitzroy Crossing
Date/Time
WST
Temp
°C
App
Temp
°C
Dew
Point
Rel
Hum
%
Delta-T
°C
Wind Press
QNH
hPa
Press
MSL
hPa
Rain
since 9 am
mm
Dir
 
Spd
km/h
Gust
km/h
Spd
kts
Gust
kts
02/08:00am 29.9 32.8 23.8 70 4.2 SW 15 20 8 11 1011.2 1010.3 1.0
02/07:30am 29.3 32.8 23.5 71 4.0 WSW 11 15 6 8 1010.9 1010.0 1.0
02/07:00am 28.1 33.7 23.5 76 3.2 CALM 0 0 0 0 1010.9 1010.0 1.0
02/06:30am 26.8 32.2 23.3 81 2.4 CALM 0 6 0 3 1010.6 1009.7 1.0
02/06:00am 26.2 31.6 23.3 84 2.0 CALM 0 0 0 0 1010.2 1009.3 1.0
02/05:30am 25.8 31.5 23.8 89 1.4 CALM 0 0 0 0 1009.7 1008.8 1.0
02/05:00am 25.9 31.7 23.9 89 1.4 CALM 0 0 0 0 1009.3 1008.4 1.0
02/04:30am 26.1 31.8 23.8 87 1.6 CALM 0 0 0 0 1009.1 1008.2 1.0
02/04:00am 26.1 31.7 23.6 86 1.7 CALM 0 0 0 0 1008.9 1008.0 1.0
02/03:30am 26.1 31.6 23.4 85 1.8 CALM 0 0 0 0 1008.7 1007.8 1.0
02/03:00am 26.3 31.8 23.4 84 2.0 CALM 0 0 0 0 1008.7 1007.8 1.0
02/02:30am 26.4 31.1 23.9 86 1.7 W 6 7 3 4 1008.7 1007.8 1.0
02/02:00am 26.5 30.3 23.4 83 2.1 WNW 9 11 5 6 1008.6 1007.7 1.0
02/01:30am 26.7 30.3 24.4 87 1.6 W 13 17 7 9 1008.4 1007.5 1.0
02/01:00am 26.9 31.7 24.5 87 1.7 WNW 7 11 4 6 1008.3 1007.4 1.0
02/12:30am 27.2 33.3 24.5 85 1.9 CALM 0 0 0 0 1008.7 1007.8 1.0
02/12:00am 26.9 33.0 24.5 87 1.7 CALM 0 0 0 0 1009.3 1008.4 1.0
 
Date/Time
WST
Temp
°C
App
Temp
°C
Dew
Point
Rel
Hum
%
Delta-T
°C
Wind Press
QNH
hPa
Press
MSL
hPa
Rain
since 9 am
mm
Dir
 
Spd
km/h
Gust
km/h
Spd
kts
Gust
kts
01/11:30pm 26.7 31.7 23.8 84 2.0 NE 4 15 2 8 1010.1 1009.2 1.0
01/11:00pm 28.2 29.8 22.9 73 3.6 ENE 19 26 10 14 1010.6 1009.7 0.0
01/10:30pm 27.9 31.4 23.5 77 3.0 ENE 11 19 6 10 1010.9 1010.0 0.0
01/10:00pm 28.1 32.3 23.5 76 3.2 N 7 11 4 6 1010.5 1009.6 0.0
01/09:30pm 28.4 32.1 23.3 74 3.5 NNE 9 11 5 6 1010.4 1009.5 0.0
01/09:00pm 28.7 32.6 23.6 74 3.5 NE 9 15 5 8 1010.3 1009.4 0.0
01/08:30pm 28.9 32.7 24.0 75 3.4 NNE 11 17 6 9 1009.8 1008.9 0.0
01/08:00pm 29.0 34.1 25.0 79 2.8 NE 7 9 4 5 1009.5 1008.6 0.0
01/07:30pm 29.3 34.3 24.8 77 3.2 NE 7 11 4 6 1009.0 1008.1 0.0
01/07:00pm 29.5 34.8 25.3 78 3.0 NE 7 11 4 6 1008.8 1007.9 0.0
01/06:30pm 30.6 37.2 25.2 73 3.8 CALM 0 0 0 0 1008.6 1007.7 0.0
01/06:00pm 31.7 37.1 23.8 63 5.5 ENE 2 6 1 3 1008.6 1007.7 0.0
01/05:30pm 33.1 37.7 22.5 53 7.3 S 2 9 1 5 1008.3 1007.4 0.0
01/05:00pm 32.8 35.2 22.3 54 7.2 S 13 17 7 9 1008.1 1007.2 0.0
01/04:30pm 32.0 35.6 23.0 59 6.2 S 9 15 5 8 1007.6 1006.7 0.0
01/04:00pm 31.6 34.3 22.9 60 6.0 S 13 20 7 11 1007.5 1006.6 0.0
01/03:30pm 32.4 33.1 22.2 55 7.0 SSW 22 30 12 16 1007.4 1006.5 0.0
01/03:00pm 34.6 35.7 22.0 48 8.7 WSW 19 26 10 14 1007.1 1006.2 0.0
01/02:30pm 32.7 35.5 23.6 58 6.3 NNW 15 20 8 11 1007.5 1006.6 0.0
01/02:00pm 30.7 32.0 23.4 65 5.1 NNW 22 32 12 17 1008.1 1007.2 0.0
01/01:30pm 32.0 33.9 23.5 60 5.9 WSW 19 24 10 13 1008.4 1007.5 0.0
01/01:00pm 29.4 32.2 24.9 77 3.2 NW 19 22 10 12 1009.0 1008.1 0.0
01/12:30pm 32.6 35.3 24.1 61 6.0 W 17 24 9 13 1009.5 1008.6 0.0
01/12:00pm 33.7 35.4 24.0 57 6.8 WSW 22 30 12 16 1009.7 1008.8 0.0
01/11:30am 33.3 35.0 23.0 54 7.1 WSW 19 26 10 14 1010.1 1009.2 0.0
01/11:00am 33.1 35.2 23.7 57 6.6 WSW 19 26 10 14 1010.4 1009.5 0.0
01/10:30am 32.3 34.0 23.0 58 6.4 WSW 19 26 10 14 1010.6 1009.7 0.0
01/10:00am 31.7 33.2 22.7 59 6.2 SW 19 28 10 15 1011.0 1010.1 0.0
01/09:30am 31.3 32.7 22.9 61 5.8 WSW 20 28 11 15 1011.0 1010.1 0.0
01/09:00am 30.6 31.6 22.2 61 5.7 WSW 20 26 11 14 1011.0 1010.1 0.0
01/08:30am 29.8 30.0 22.0 63 5.3 WSW 24 30 13 16 1011.1 1010.2 0.0
01/08:00am 29.1 29.6 22.6 68 4.4 WSW 24 35 13 19 1011.1 1010.2 0.0
01/07:30am 28.7 29.2 22.7 70 4.1 WSW 24 30 13 16 1011.0 1010.1 0.0
01/07:00am 27.9 29.8 22.8 74 3.5 WSW 17 24 9 13 1010.7 1009.8 0.0
01/06:30am 26.8 30.0 23.7 83 2.1 WNW 13 17 7 9 1010.6 1009.7 0.0
01/06:00am 25.7 29.8 23.9 90 1.2 WNW 9 11 5 6 1010.3 1009.4 0.0
01/05:30am 25.3 29.6 23.7 91 1.1 WNW 7 9 4 5 1009.8 1008.9 0.0
01/05:00am 25.5 29.8 23.7 90 1.2 NW 7 9 4 5 1009.2 1008.3 0.0
01/04:30am 25.5 29.8 23.6 89 1.3 WNW 7 11 4 6 1009.0 1008.1 0.0
01/04:00am 25.7 28.8 23.6 88 1.4 WNW 13 15 7 8 1008.8 1007.9 0.0
01/03:30am 25.9 31.7 23.9 89 1.4 CALM 0 0 0 0 1008.5 1007.6 0.0
01/03:00am 25.9 31.7 23.9 89 1.4 CALM 0 0 0 0 1008.2 1007.3 0.0
01/02:30am 26.1 32.1 24.3 90 1.2 CALM 0 0 0 0 1008.0 1007.1 0.0
01/02:00am 26.2 32.4 24.6 91 1.1 CALM 0 0 0 0 1008.1 1007.2 0.0
01/01:30am 26.3 32.3 24.3 89 1.4 CALM 0 0 0 0 1008.2 1007.3 0.0
01/01:00am 26.4 30.8 23.5 84 2.0 NE 6 7 3 4 1008.4 1007.5 0.0
01/12:30am 27.0 31.1 23.3 80 2.5 NNE 7 11 4 6 1008.7 1007.8 0.0
01/12:00am 26.7 31.1 23.8 84 2.0 NE 7 9 4 5 1009.0 1008.1 0.0
 
Date/Time
WST
Temp
°C
App
Temp
°C
Dew
Point
Rel
Hum
%
Delta-T
°C
Wind Press
QNH
hPa
Press
MSL
hPa
Rain
since 9 am
mm
Dir
 
Spd
km/h
Gust
km/h
Spd
kts
Gust
kts
31/11:30pm 27.0 31.5 24.6 87 1.7 ENE 9 9 5 5 1009.3 1008.4 0.0
31/11:00pm 27.1 32.3 25.1 89 1.4 E 7 9 4 5 1009.4 1008.5 0.0
31/10:30pm 27.2 33.0 25.2 89 1.4 NE 4 15 2 8 1009.7 1008.8 0.0
31/10:00pm 27.4 33.7 24.8 86 1.8 CALM 0 0 0 0 1009.6 1008.7 0.0
31/09:30pm 27.6 33.6 24.2 82 2.4 CALM 0 0 0 0 1009.4 1008.5 0.0
31/09:00pm 28.2 34.5 24.8 82 2.4 CALM 0 0 0 0 1009.1 1008.2 0.0
31/08:30pm 28.2 34.7 25.0 83 2.2 CALM 0 0 0 0 1008.8 1007.9 0.0
31/08:00pm 28.7 34.5 24.0 76 3.3 CALM 0 0 0 0 1008.5 1007.6 0.0
31/07:30pm 28.8 33.3 23.9 75 3.4 S 7 7 4 4 1008.1 1007.2 0.0
31/07:00pm 29.4 34.1 24.3 74 3.6 SW 7 9 4 5 1007.8 1006.9 0.0
31/06:30pm 30.0 34.3 23.7 69 4.4 WSW 7 9 4 5 1007.7 1006.8 0.0
31/06:00pm 31.5 33.9 22.2 57 6.4 WSW 13 17 7 9 1007.3 1006.4 0.0
31/05:30pm 32.6 34.2 21.5 52 7.5 SW 15 19 8 10 1007.0 1006.1 0.0
31/05:00pm 33.3 34.3 21.1 48 8.3 WSW 17 24 9 13 1006.8 1005.9 0.0
31/04:30pm 33.7 34.4 21.2 48 8.5 WSW 19 24 10 13 1006.6 1005.6 0.0
31/04:00pm 33.7 34.2 20.8 46 8.7 WSW 19 24 10 13 1006.6 1005.6 0.0
31/03:30pm 33.6 34.0 20.7 46 8.7 WSW 19 26 10 14 1006.6 1005.6 0.0
31/03:00pm 33.9 35.2 21.7 49 8.3 WSW 17 26 9 14 1006.7 1005.7 0.0
31/02:30pm 33.6 35.2 21.4 48 8.3 WSW 15 26 8 14 1006.9 1006.0 0.0
31/02:00pm 33.6 34.9 22.4 52 7.7 SW 19 26 10 14 1007.3 1006.4 0.0
31/01:30pm 33.4 35.9 23.1 54 7.1 SW 15 22 8 12 1007.7 1006.8 0.0
31/01:00pm 32.8 35.4 22.6 55 7.0 SW 13 20 7 11 1008.1 1007.2 0.0
31/12:30pm 32.0 34.8 23.0 59 6.2 SW 13 24 7 13 1008.4 1007.5 0.0
31/12:00pm 32.2 36.4 23.4 59 6.1 WSW 7 15 4 8 1008.6 1007.7 0.0
31/11:30am 31.4 35.0 22.4 59 6.2 W 7 15 4 8 1009.1 1008.2 0.0
31/11:00am 30.5 33.6 21.0 57 6.4 WNW 6 9 3 5 1009.2 1008.3 0.0
31/10:30am 29.9 33.3 21.6 61 5.6 WNW 6 11 3 6 1009.3 1008.4 0.0
31/10:00am 28.8 32.5 22.5 68 4.3 N 7 11 4 6 1009.6 1008.7 0.0
31/09:30am 28.1 31.4 22.6 72 3.7 N 9 13 5 7 1009.7 1008.8 0.0
31/09:00am 27.4 30.9 22.8 76 3.1 NW 9 13 5 7 1010.3 1009.4 7.6
31/08:30am 25.6 28.1 22.5 83 2.1 NNW 13 15 7 8 1010.3 1009.4 7.4
31/08:00am 25.0 28.2 23.1 89 1.3 N 11 15 6 8 1010.0 1009.1 7.4
31/07:30am 23.7 28.7 22.5 93 0.8 CALM 0 7 0 4 1010.1 1009.2 7.4
31/07:00am 23.3 26.9 22.3 94 0.7 SW 7 9 4 5 1010.6 1009.7 7.4
31/06:30am 22.8 24.0 21.4 92 0.9 SSW 17 24 9 13 1010.7 1009.8 7.4
31/06:00am 22.7 23.7 21.7 94 0.7 S 19 26 10 14 1010.1 1009.2 7.0
31/05:30am 22.7 22.6 21.5 93 0.8 S 24 30 13 16 1010.2 1009.3 7.0
31/05:00am 22.6 22.0 21.2 92 0.9 S 26 39 14 21 1010.0 1009.1 3.4
31/04:45am 24.7 25.6 21.6 83 2.1 W 19 43 10 23 1009.9 1009.0 0.0
31/04:30am 26.0 30.4 23.5 86 1.7 W 6 13 3 7 1009.1 1008.2 0.0
31/04:00am 25.9 30.0 23.2 85 1.8 WNW 7 9 4 5 1008.6 1007.7 0.0
31/03:30am 25.7 30.2 23.6 88 1.4 W 6 9 3 5 1008.1 1007.2 0.0
31/03:00am 25.8 29.0 23.7 88 1.4 WNW 13 17 7 9 1008.1 1007.2 0.0
31/02:30am 25.7 30.0 23.6 88 1.4 N 7 9 4 5 1008.2 1007.3 0.0
31/02:00am 25.8 29.9 23.3 86 1.7 N 7 9 4 5 1008.3 1007.4 0.0
31/01:30am 25.6 29.8 23.5 88 1.4 NNE 7 9 4 5 1008.4 1007.5 0.0
31/01:00am 25.7 31.3 23.6 88 1.4 CALM 0 0 0 0 1008.3 1007.4 0.0
31/12:30am 25.7 31.4 23.7 89 1.4 CALM 0 0 0 0 1008.6 1007.7 0.0
31/12:00am 25.8 30.2 23.8 89 1.4 NE 7 9 4 5 1009.0 1008.1 0.0
 
Date/Time
WST
Temp
°C
App
Temp
°C
Dew
Point
Rel
Hum
%
Delta-T
°C
Wind Press
QNH
hPa
Press
MSL
hPa
Rain
since 9 am
mm
Dir
 
Spd
km/h
Gust
km/h
Spd
kts
Gust
kts
30/11:30pm 26.0 30.7 23.3 85 1.8 NE 4 7 2 4 1009.2 1008.3 0.0
30/11:00pm 25.9 30.1 23.4 86 1.7 NE 7 9 4 5 1009.0 1008.1 0.0
30/10:30pm 26.1 29.8 23.2 84 2.0 NNE 9 11 5 6 1008.9 1008.0 0.0
30/10:00pm 26.2 30.5 23.7 86 1.7 N 7 11 4 6 1008.7 1007.8 0.0
30/09:30pm 26.7 29.6 22.5 78 2.8 NNE 11 13 6 7 1008.6 1007.7 0.0
30/09:00pm 26.9 30.4 22.9 79 2.7 NNE 9 15 5 8 1008.4 1007.5 0.0
30/08:30pm 27.2 31.4 23.4 80 2.6 NNE 7 9 4 5 1008.1 1007.2 0.0
30/08:00pm 27.9 31.6 23.3 76 3.2 NNE 9 11 5 6 1007.9 1007.0 0.0
30/07:30pm 27.8 31.1 22.5 73 3.6 N 9 11 5 6 1007.5 1006.6 0.0
30/07:00pm 28.1 32.0 21.9 69 4.2 N 4 7 2 4 1007.2 1006.3 0.0
30/06:30pm 28.5 32.1 22.0 68 4.4 NW 6 7 3 4 1006.7 1005.7 0.0
30/06:00pm 29.4 32.5 22.1 65 5.0 WNW 9 11 5 6 1006.4 1005.4 0.0
30/05:30pm 30.0 31.4 21.1 59 6.0 WNW 15 20 8 11 1006.0 1005.0 0.0
30/05:00pm 30.5 31.1 21.0 57 6.4 NNW 19 24 10 13 1006.0 1005.0 0.0
30/04:30pm 31.1 32.9 21.9 58 6.3 NW 15 20 8 11 1006.2 1005.2 0.0
30/04:00pm 30.6 32.6 22.2 61 5.7 NNW 15 19 8 10 1006.1 1005.1 0.0
30/03:30pm 30.5 32.4 22.1 61 5.7 NNW 15 19 8 10 1006.1 1005.1 0.0
30/03:00pm 30.4 33.1 22.8 64 5.2 NNW 13 17 7 9 1006.2 1005.2 0.0
30/02:30pm 29.9 32.2 22.1 63 5.3 N 13 19 7 10 1006.4 1005.4 0.0
30/02:00pm 29.8 33.0 22.3 64 5.1 NNW 9 17 5 9 1006.5 1005.5 0.0
30/01:30pm 29.8 33.3 22.8 66 4.8 NNW 9 15 5 8 1006.9 1006.0 0.0
30/01:00pm 29.3 32.1 21.5 63 5.3 NNW 9 15 5 8 1007.4 1006.5 0.0
30/12:30pm 29.1 32.4 21.8 64 4.9 NNW 7 11 4 6 1007.9 1007.0 0.0
30/12:00pm 28.9 32.2 21.9 66 4.7 NNW 7 17 4 9 1008.5 1007.6 0.0
30/11:30am 28.8 31.9 22.1 67 4.5 W 9 15 5 8 1009.0 1008.1 0.0
30/11:00am 28.3 30.0 21.6 67 4.5 WNW 15 19 8 10 1009.2 1008.3 0.0
30/10:30am 28.2 32.2 22.7 72 3.8 NNE 6 7 3 4 1009.7 1008.8 0.0
30/10:00am 27.5 32.2 22.7 75 3.3 N 2 11 1 6 1010.0 1009.1 0.0
30/09:30am 27.0 31.7 23.3 80 2.5 NNE 4 11 2 6 1010.1 1009.2 0.0
30/09:00am 26.4 31.4 22.5 79 2.6 CALM 0 0 0 0 1009.9 1009.0 38.4
30/08:30am 25.3 29.7 22.8 86 1.7 WNW 4 11 2 6 1009.6 1008.7 38.4

Other Formats:

Comma delimited format used in spreadsheet applications
http://www.bom.gov.au/fwo/IDW60801/IDW60801.94206.axf

JavaScript Object Notation format (JSON) in row-major order
http://www.bom.gov.au/fwo/IDW60801/IDW60801.94206.json